createdAt,value
2019-03-22T00:00:32.880Z,5.75
2019-03-22T00:03:39.735Z,5.80
2019-03-22T00:06:46.555Z,5.75
2019-03-22T00:09:53.601Z,5.78
2019-03-22T00:13:02.059Z,5.78
2019-03-22T00:16:08.852Z,5.75
2019-03-22T00:19:15.806Z,5.69
2019-03-22T00:22:22.697Z,5.65
2019-03-22T00:25:29.557Z,5.65
2019-03-22T00:28:36.416Z,5.71
2019-03-22T00:31:43.354Z,5.58
2019-03-22T00:34:50.231Z,5.63
2019-03-22T00:37:57.318Z,5.54
2019-03-22T00:41:04.187Z,5.48
2019-03-22T00:44:11.087Z,5.43
2019-03-22T00:47:18.117Z,5.27
2019-03-22T00:50:26.285Z,5.37
2019-03-22T00:53:33.043Z,5.32
2019-03-22T00:56:40.256Z,5.28
2019-03-22T00:59:47.275Z,5.23
2019-03-22T01:02:54.657Z,5.25
2019-03-22T01:06:01.449Z,5.11
2019-03-22T01:09:08.545Z,5.12
2019-03-22T01:12:15.581Z,4.75
2019-03-22T01:15:22.760Z,4.75
2019-03-22T01:18:29.550Z,4.79
2019-03-22T01:21:36.538Z,4.74
2019-03-22T01:24:43.561Z,4.63
2019-03-22T01:27:50.691Z,4.63
2019-03-22T01:30:57.557Z,4.70
2019-03-22T01:34:04.573Z,4.76
2019-03-22T01:37:11.634Z,4.77
2019-03-22T01:40:18.536Z,4.50
2019-03-22T01:43:25.437Z,4.56
2019-03-22T01:46:32.232Z,4.51
2019-03-22T01:49:40.189Z,4.47
2019-03-22T01:52:47.110Z,4.52
2019-03-22T01:55:54.037Z,4.44
2019-03-22T01:59:01.111Z,4.45
2019-03-22T02:02:08.090Z,4.41
2019-03-22T02:05:16.618Z,4.43
2019-03-22T02:08:23.510Z,4.32
2019-03-22T02:11:30.473Z,4.17
2019-03-22T02:14:37.492Z,4.22
2019-03-22T02:17:44.395Z,4.20
2019-03-22T02:20:51.267Z,3.69
2019-03-22T02:23:58.347Z,4.11
2019-03-22T02:27:05.323Z,3.98
2019-03-22T02:30:12.820Z,4.05
2019-03-22T02:33:19.624Z,4.11
2019-03-22T02:36:26.566Z,4.05
2019-03-22T02:39:33.462Z,3.92
2019-03-22T02:42:40.645Z,3.92
2019-03-22T02:45:47.499Z,3.86
2019-03-22T02:48:54.625Z,3.83
2019-03-22T02:52:01.482Z,3.83
2019-03-22T02:55:08.788Z,3.87
2019-03-22T02:58:20.933Z,3.75
2019-03-22T03:01:24.274Z,3.74
2019-03-22T03:04:31.172Z,3.62
2019-03-22T03:07:38.568Z,3.73
2019-03-22T03:10:45.427Z,3.64
2019-03-22T03:13:52.444Z,3.63
2019-03-22T03:16:59.566Z,3.51
2019-03-22T03:20:08.755Z,3.46
2019-03-22T03:23:15.558Z,3.62
2019-03-22T03:26:22.539Z,3.65
2019-03-22T03:29:29.473Z,3.73
2019-03-22T03:32:36.424Z,3.66
2019-03-22T03:35:43.307Z,3.56
2019-03-22T03:38:50.702Z,3.50
2019-03-22T03:41:57.648Z,3.43
2019-03-22T03:45:05.199Z,3.47
2019-03-22T03:48:12.009Z,3.43
2019-03-22T03:51:18.988Z,3.41
2019-03-22T03:54:25.867Z,3.31
2019-03-22T03:57:32.728Z,3.18
2019-03-22T04:00:39.525Z,3.08
2019-03-22T04:03:46.364Z,3.03
2019-03-22T04:06:53.362Z,3.04
2019-03-22T04:10:01.321Z,2.99
2019-03-22T04:13:08.173Z,2.96
2019-03-22T04:16:15.488Z,2.95
2019-03-22T04:19:23.693Z,2.82
2019-03-22T04:22:31.207Z,2.82
2019-03-22T04:25:38.033Z,2.69
2019-03-22T04:28:45.099Z,2.79
2019-03-22T04:31:52.017Z,2.70
2019-03-22T04:34:58.855Z,2.73
2019-03-22T04:38:05.654Z,2.68
2019-03-22T04:41:12.739Z,2.70
2019-03-22T04:44:19.678Z,2.65
2019-03-22T04:47:26.849Z,2.64
2019-03-22T04:50:35.945Z,2.67
2019-03-22T04:53:46.780Z,2.69
2019-03-22T04:56:53.689Z,2.52
2019-03-22T05:00:01.393Z,2.46
2019-03-22T05:03:09.520Z,2.50
2019-03-22T05:06:18.364Z,2.41
2019-03-22T05:09:28.368Z,2.41
2019-03-22T05:12:36.026Z,2.40
2019-03-22T05:15:43.051Z,2.33
2019-03-22T05:18:50.819Z,2.35
2019-03-22T05:21:58.398Z,2.30
2019-03-22T05:25:05.767Z,2.37
2019-03-22T05:28:12.857Z,2.35
2019-03-22T05:31:51.003Z,2.43
2019-03-22T05:34:58.026Z,2.35
2019-03-22T05:38:05.111Z,2.39
2019-03-22T05:41:13.759Z,2.30
2019-03-22T05:44:20.938Z,2.32
2019-03-22T05:47:28.154Z,2.22
2019-03-22T05:50:35.057Z,2.24
2019-03-22T05:53:41.926Z,2.29
2019-03-22T05:56:49.036Z,2.26
2019-03-22T05:59:56.297Z,2.25
2019-03-22T06:03:03.647Z,2.33
2019-03-22T06:06:10.495Z,2.37
2019-03-22T06:09:17.527Z,2.43
2019-03-22T06:12:24.554Z,2.45
2019-03-22T06:15:31.956Z,2.52
2019-03-22T06:18:39.069Z,2.44
2019-03-22T06:21:46.073Z,2.38
2019-03-22T06:24:53.400Z,2.35
2019-03-22T06:28:00.304Z,2.38
2019-03-22T06:31:08.054Z,2.35
2019-03-22T06:34:15.304Z,2.34
2019-03-22T06:37:22.251Z,2.33
2019-03-22T06:40:29.090Z,2.37
2019-03-22T06:43:35.860Z,2.40
2019-03-22T06:46:42.931Z,2.39
2019-03-22T06:49:49.882Z,2.43
2019-03-22T06:52:56.892Z,2.47
2019-03-22T06:56:03.808Z,2.53
2019-03-22T06:59:10.618Z,2.54
2019-03-22T07:02:18.627Z,2.60
2019-03-22T07:05:28.822Z,2.69
2019-03-22T07:08:35.605Z,2.72
2019-03-22T07:11:42.559Z,2.82
2019-03-22T07:14:49.541Z,2.92
2019-03-22T07:17:57.825Z,2.93
2019-03-22T07:21:04.757Z,3.01
2019-03-22T07:24:11.767Z,3.09
2019-03-22T07:27:18.878Z,3.21
2019-03-22T07:30:25.727Z,3.29
2019-03-22T07:33:32.632Z,3.36
2019-03-22T07:36:39.656Z,3.50
2019-03-22T07:39:46.690Z,3.68
2019-03-22T07:42:53.483Z,3.90
2019-03-22T07:46:00.359Z,4.05
2019-03-22T07:49:07.333Z,4.17
2019-03-22T07:52:14.354Z,4.53
2019-03-22T07:55:21.253Z,4.84
2019-03-22T07:58:28.160Z,5.10
2019-03-22T08:01:35.918Z,5.42
2019-03-22T08:04:43.929Z,5.67
2019-03-22T08:07:51.136Z,5.73
2019-03-22T08:10:58.033Z,5.79
2019-03-22T08:14:04.980Z,5.95
2019-03-22T08:17:11.971Z,6.88
2019-03-22T08:20:20.608Z,6.94
2019-03-22T08:23:27.530Z,6.40
2019-03-22T08:26:34.507Z,7.19
2019-03-22T08:29:42.539Z,7.08
2019-03-22T08:32:50.607Z,7.08
2019-03-22T08:35:57.634Z,6.97
2019-03-22T08:39:06.244Z,7.25
2019-03-22T08:42:13.345Z,8.06
2019-03-22T08:45:20.365Z,8.06
2019-03-22T08:48:27.173Z,8.65
2019-03-22T08:51:34.045Z,9.03
2019-03-22T08:54:41.090Z,9.26
2019-03-22T08:57:49.791Z,9.73
2019-03-22T09:00:58.336Z,9.72
2019-03-22T09:04:06.675Z,9.16
2019-03-22T09:07:13.700Z,10.08
2019-03-22T09:10:20.703Z,10.49
2019-03-22T09:13:27.540Z,10.59
2019-03-22T09:16:34.491Z,11.22
2019-03-22T09:19:41.434Z,11.39
2019-03-22T09:22:48.613Z,11.65
2019-03-22T09:25:55.408Z,11.56
2019-03-22T09:29:02.304Z,11.41
2019-03-22T09:32:10.024Z,10.65
2019-03-22T09:35:16.977Z,11.61
2019-03-22T09:38:23.968Z,11.98
2019-03-22T09:41:30.840Z,11.31
2019-03-22T09:44:43.199Z,10.92
2019-03-22T09:47:46.460Z,10.82
2019-03-22T09:50:53.490Z,10.87
2019-03-22T09:54:00.490Z,11.49
2019-03-22T09:57:07.523Z,11.57
2019-03-22T10:00:24.238Z,11.48
2019-03-22T10:03:31.150Z,12.04
2019-03-22T10:06:38.089Z,12.18
2019-03-22T10:09:45.157Z,11.55
2019-03-22T10:12:52.258Z,11.21
2019-03-22T10:16:00.221Z,11.63
2019-03-22T10:19:07.062Z,12.43
2019-03-22T10:22:14.130Z,11.64
2019-03-22T10:25:23.388Z,12.61
2019-03-22T10:28:30.519Z,12.56
2019-03-22T10:31:37.969Z,13.30
2019-03-22T10:34:45.556Z,14.15
2019-03-22T10:38:00.127Z,14.02
2019-03-22T10:41:01.086Z,15.26
2019-03-22T10:44:08.100Z,14.19
2019-03-22T10:47:17.979Z,14.19
2019-03-22T10:50:23.841Z,14.82
2019-03-22T10:53:30.728Z,14.69
2019-03-22T10:56:37.707Z,15.09
2019-03-22T10:59:44.722Z,15.65
2019-03-22T11:02:51.635Z,15.87
2019-03-22T11:05:58.527Z,14.45
2019-03-22T11:09:08.948Z,15.68
2019-03-22T11:12:15.997Z,15.93
2019-03-22T11:15:24.077Z,17.18
2019-03-22T11:18:37.460Z,16.96
2019-03-22T11:21:39.688Z,17.25
2019-03-22T11:24:46.672Z,16.47
2019-03-22T11:27:54.776Z,15.53
2019-03-22T11:31:05.004Z,16.53
2019-03-22T11:34:10.268Z,17.91
2019-03-22T11:37:17.450Z,16.54
2019-03-22T11:40:24.365Z,15.84
2019-03-22T11:43:31.246Z,16.31
2019-03-22T11:46:38.319Z,17.36
2019-03-22T11:49:45.495Z,15.99
2019-03-22T11:52:52.420Z,17.27
2019-03-22T11:55:59.219Z,15.09
2019-03-22T11:59:06.144Z,15.42
2019-03-22T12:02:22.195Z,15.75
2019-03-22T12:05:23.092Z,15.69
2019-03-22T12:08:30.150Z,15.40
2019-03-22T12:11:38.100Z,15.40
2019-03-22T12:14:45.011Z,16.08
2019-03-22T12:17:52.042Z,15.83
2019-03-22T12:20:59.177Z,15.99
2019-03-22T12:24:06.199Z,15.60
2019-03-22T12:27:13.192Z,15.35
2019-03-22T12:30:20.433Z,16.25
2019-03-22T12:33:27.298Z,15.60
2019-03-22T12:36:34.270Z,16.02
2019-03-22T12:39:42.016Z,15.30
2019-03-22T12:42:49.318Z,15.43
2019-03-22T12:45:56.254Z,15.53
2019-03-22T12:49:03.123Z,15.68
2019-03-22T12:52:10.472Z,15.53
2019-03-22T12:55:17.580Z,15.04
2019-03-22T12:58:24.484Z,15.97
2019-03-22T13:01:31.549Z,15.70
2019-03-22T13:04:38.467Z,15.04
2019-03-22T13:07:45.383Z,14.17
2019-03-22T13:10:52.268Z,13.93
2019-03-22T13:14:01.023Z,13.04
2019-03-22T13:17:08.012Z,12.12
2019-03-22T13:20:15.127Z,12.12
2019-03-22T13:23:22.212Z,12.60
2019-03-22T13:26:29.092Z,12.51
2019-03-22T13:29:36.358Z,12.02
2019-03-22T13:32:51.917Z,12.02
2019-03-22T13:35:52.144Z,11.45
2019-03-22T13:38:59.094Z,11.19
2019-03-22T13:42:06.483Z,11.04
2019-03-22T13:45:13.680Z,11.50
2019-03-22T13:48:20.663Z,11.53
2019-03-22T13:51:27.614Z,11.14
2019-03-22T13:54:34.673Z,11.44
2019-03-22T13:57:41.593Z,11.33
2019-03-22T14:00:48.452Z,10.97
2019-03-22T14:03:56.899Z,11.24
2019-03-22T14:07:03.791Z,11.19
2019-03-22T14:10:12.598Z,11.21
2019-03-22T14:13:19.521Z,11.16
2019-03-22T14:16:26.363Z,11.65
2019-03-22T14:19:33.324Z,11.57
2019-03-22T14:22:40.272Z,11.55
2019-03-22T14:25:47.212Z,11.43
2019-03-22T14:28:54.311Z,11.60
2019-03-22T14:32:01.240Z,10.85
2019-03-22T14:35:09.300Z,11.52
2019-03-22T14:38:16.193Z,11.40
2019-03-22T14:41:23.249Z,11.35
2019-03-22T14:44:31.498Z,11.19
2019-03-22T14:47:39.556Z,10.85
2019-03-22T14:50:48.033Z,10.49
2019-03-22T14:53:54.962Z,10.56
2019-03-22T14:57:01.897Z,10.27
2019-03-22T15:00:09.268Z,10.50
2019-03-22T15:03:26.339Z,10.20
2019-03-22T15:06:34.753Z,10.05
2019-03-22T15:09:42.774Z,10.05
2019-03-22T15:12:51.712Z,9.76
2019-03-22T15:16:18.617Z,9.44
2019-03-22T15:19:49.169Z,9.02
2019-03-22T15:23:30.227Z,8.74
2019-03-22T15:26:56.082Z,8.52
2019-03-22T15:30:29.440Z,8.31
2019-03-22T15:33:54.288Z,8.17
2019-03-22T15:37:27.696Z,8.09
2019-03-22T15:40:37.344Z,7.94
2019-03-22T15:43:44.541Z,7.78
2019-03-22T15:46:54.564Z,7.74
2019-03-22T15:50:03.853Z,7.82
2019-03-22T15:53:15.353Z,7.55
2019-03-22T15:56:22.655Z,7.45
2019-03-22T15:59:33.406Z,7.32
2019-03-22T16:02:40.356Z,7.28
2019-03-22T16:05:47.980Z,7.26
2019-03-22T16:08:55.059Z,7.06
2019-03-22T16:12:02.229Z,7.03
2019-03-22T16:15:11.932Z,6.89
2019-03-22T16:18:20.401Z,7.09
2019-03-22T16:21:27.459Z,7.00
2019-03-22T16:24:35.923Z,6.92
2019-03-22T16:27:42.830Z,6.76
2019-03-22T16:30:49.646Z,6.81
2019-03-22T16:33:56.519Z,6.86
2019-03-22T16:37:04.869Z,6.70
2019-03-22T16:40:12.180Z,6.53
2019-03-22T16:43:19.649Z,6.25
2019-03-22T16:46:26.496Z,6.44
2019-03-22T16:49:33.541Z,6.37
2019-03-22T16:52:40.449Z,6.37
2019-03-22T16:55:47.370Z,6.02
2019-03-22T16:58:54.289Z,6.01
2019-03-22T17:02:01.305Z,6.01
2019-03-22T17:05:09.321Z,5.93
2019-03-22T17:08:16.300Z,5.73
2019-03-22T17:11:33.612Z,5.70
2019-03-22T17:14:41.767Z,5.73
2019-03-22T17:17:48.607Z,5.68
2019-03-22T17:20:56.061Z,5.55
2019-03-22T17:24:03.246Z,5.52
2019-03-22T17:27:10.258Z,5.33
2019-03-22T17:30:17.324Z,4.89
2019-03-22T17:33:26.451Z,5.24
2019-03-22T17:36:33.317Z,5.11
2019-03-22T17:39:40.705Z,5.15
2019-03-22T17:42:47.954Z,5.14
2019-03-22T17:45:54.992Z,5.04
2019-03-22T17:49:05.086Z,5.03
2019-03-22T17:52:14.508Z,4.93
2019-03-22T17:55:21.441Z,4.91
2019-03-22T17:58:28.392Z,4.76
2019-03-22T18:01:35.565Z,4.75
2019-03-22T18:04:42.521Z,4.75
2019-03-22T18:07:49.515Z,4.61
2019-03-22T18:10:56.383Z,4.48
2019-03-22T18:14:03.345Z,4.52
2019-03-22T18:17:10.711Z,4.58
2019-03-22T18:20:19.616Z,4.45
2019-03-22T18:23:35.486Z,4.31
2019-03-22T18:26:38.239Z,4.25
2019-03-22T18:29:45.270Z,4.30
2019-03-22T18:32:52.159Z,4.16
2019-03-22T18:36:00.841Z,4.23
2019-03-22T18:39:09.652Z,4.17
2019-03-22T18:42:18.105Z,4.17
2019-03-22T18:45:24.904Z,4.13
2019-03-22T18:48:31.820Z,4.12
2019-03-22T18:51:38.854Z,4.15
2019-03-22T18:54:46.004Z,4.15
2019-03-22T18:57:53.065Z,4.11
2019-03-22T19:00:59.997Z,4.11
2019-03-22T19:04:07.410Z,4.07
2019-03-22T19:07:14.483Z,4.02
2019-03-22T19:10:22.240Z,4.02
2019-03-22T19:13:30.815Z,4.07
2019-03-22T19:16:38.199Z,4.05
2019-03-22T19:19:48.611Z,4.10
2019-03-22T19:22:56.649Z,4.11
2019-03-22T19:26:04.128Z,4.04
2019-03-22T19:29:11.245Z,4.04
2019-03-22T19:32:22.334Z,4.12
2019-03-22T19:35:33.283Z,4.04
2019-03-22T19:38:44.266Z,4.03
2019-03-22T19:41:53.962Z,4.03
2019-03-22T19:45:01.194Z,4.08
2019-03-22T19:48:12.297Z,4.09
2019-03-22T19:51:19.552Z,4.17
2019-03-22T19:54:28.191Z,4.13
2019-03-22T19:57:38.238Z,4.09
2019-03-22T20:00:47.378Z,4.05
2019-03-22T20:03:55.882Z,4.10
2019-03-22T20:07:06.299Z,4.12
2019-03-22T20:10:13.462Z,4.14
2019-03-22T20:13:23.351Z,4.17
2019-03-22T20:16:31.576Z,4.21
2019-03-22T20:19:40.520Z,4.24
2019-03-22T20:22:47.515Z,4.32
2019-03-22T20:25:56.112Z,4.29
2019-03-22T20:29:03.862Z,4.37
2019-03-22T20:32:11.024Z,4.41
2019-03-22T20:35:20.162Z,4.41
2019-03-22T20:38:27.135Z,4.49
2019-03-22T20:41:34.754Z,4.55
2019-03-22T20:44:42.397Z,4.58
2019-03-22T20:47:49.456Z,4.60
2019-03-22T20:50:56.359Z,4.67
2019-03-22T20:54:03.435Z,4.69
2019-03-22T20:57:11.251Z,4.74
2019-03-22T21:00:18.327Z,4.74
2019-03-22T21:03:37.616Z,4.78
2019-03-22T21:06:49.584Z,4.85
2019-03-22T21:09:56.755Z,4.83
2019-03-22T21:13:03.705Z,4.87
2019-03-22T21:16:11.613Z,4.82
2019-03-22T21:19:19.774Z,4.83
2019-03-22T21:22:27.953Z,4.85
2019-03-22T21:25:35.412Z,4.90
2019-03-22T21:28:42.246Z,4.75
2019-03-22T21:31:49.128Z,4.83
2019-03-22T21:34:56.460Z,4.80
2019-03-22T21:38:10.909Z,4.81
2019-03-22T21:41:13.837Z,4.79
2019-03-22T21:44:20.622Z,4.86
2019-03-22T21:47:27.612Z,4.81
2019-03-22T21:50:35.404Z,4.73
2019-03-22T21:53:42.232Z,4.72
2019-03-22T21:56:49.094Z,4.74
2019-03-22T21:59:56.033Z,4.30
2019-03-22T22:03:03.005Z,4.69
2019-03-22T22:06:10.015Z,4.68
2019-03-22T22:09:18.222Z,4.70
2019-03-22T22:12:25.322Z,4.69
2019-03-22T22:15:32.196Z,4.67
2019-03-22T22:18:39.126Z,4.64
2019-03-22T22:21:46.013Z,4.68
2019-03-22T22:24:52.973Z,4.61
2019-03-22T22:28:00.152Z,4.62
2019-03-22T22:31:07.349Z,4.59
2019-03-22T22:34:14.270Z,4.65
2019-03-22T22:37:21.404Z,4.61
2019-03-22T22:40:28.291Z,4.58
2019-03-22T22:43:36.673Z,4.63
2019-03-22T22:46:44.000Z,4.65
2019-03-22T22:49:50.982Z,4.66
2019-03-22T22:52:58.641Z,4.64
2019-03-22T22:56:05.606Z,4.67
2019-03-22T22:59:12.423Z,4.71
2019-03-22T23:02:19.428Z,4.69
2019-03-22T23:05:27.127Z,4.69
2019-03-22T23:08:33.915Z,4.75
2019-03-22T23:11:40.856Z,4.68
2019-03-22T23:14:47.872Z,4.76
2019-03-22T23:17:54.873Z,4.69
2019-03-22T23:21:01.727Z,4.74
2019-03-22T23:24:08.757Z,4.68
2019-03-22T23:27:15.824Z,4.70
2019-03-22T23:30:22.615Z,4.61
2019-03-22T23:33:29.539Z,4.61
2019-03-22T23:36:36.552Z,4.66
2019-03-22T23:39:43.608Z,4.54
2019-03-22T23:42:50.767Z,4.54
2019-03-22T23:45:57.539Z,4.54
2019-03-22T23:49:04.506Z,4.60
2019-03-22T23:52:11.488Z,4.59
2019-03-22T23:55:18.607Z,4.49
2019-03-22T23:58:25.473Z,4.59
